createdAt,value
2018-09-06T00:01:00.223Z,23.90
2018-09-06T00:03:27.824Z,23.90
2018-09-06T00:05:55.517Z,23.90
2018-09-06T00:08:23.495Z,23.90
2018-09-06T00:10:51.446Z,23.90
2018-09-06T00:13:19.023Z,23.80
2018-09-06T00:15:46.887Z,23.80
2018-09-06T00:18:14.499Z,23.80
2018-09-06T00:20:42.114Z,23.80
2018-09-06T00:23:09.815Z,23.70
2018-09-06T00:25:37.651Z,23.70
2018-09-06T00:28:05.516Z,23.70
2018-09-06T00:30:33.122Z,23.70
2018-09-06T00:33:00.667Z,23.70
2018-09-06T00:35:28.286Z,23.50
2018-09-06T00:37:55.927Z,23.50
2018-09-06T00:40:23.623Z,23.60
2018-09-06T00:42:51.258Z,23.40
2018-09-06T00:45:19.088Z,23.50
2018-09-06T00:47:46.816Z,23.50
2018-09-06T00:50:15.521Z,23.50
2018-09-06T00:52:43.599Z,23.60
2018-09-06T00:55:11.456Z,23.50
2018-09-06T00:57:39.127Z,23.40
2018-09-06T01:00:06.800Z,23.40
2018-09-06T01:02:34.458Z,23.40
2018-09-06T01:05:02.082Z,23.50
2018-09-06T01:07:29.734Z,23.40
2018-09-06T01:09:57.410Z,23.40
2018-09-06T01:12:26.031Z,23.50
2018-09-06T01:14:53.884Z,23.50
2018-09-06T01:17:21.462Z,23.50
2018-09-06T01:19:49.109Z,23.50
2018-09-06T01:22:16.787Z,23.50
2018-09-06T01:24:44.447Z,23.40
2018-09-06T01:27:12.091Z,23.30
2018-09-06T01:29:39.805Z,23.30
2018-09-06T01:32:07.499Z,23.20
2018-09-06T01:34:35.181Z,23.20
2018-09-06T01:37:06.615Z,23.00
2018-09-06T01:39:34.799Z,23.00
2018-09-06T01:42:02.789Z,22.90
2018-09-06T01:44:30.420Z,22.70
2018-09-06T01:46:58.110Z,22.70
2018-09-06T01:49:25.730Z,22.60
2018-09-06T01:51:53.364Z,22.60
2018-09-06T01:54:20.983Z,22.70
2018-09-06T01:56:48.670Z,22.60
2018-09-06T01:59:16.242Z,22.60
2018-09-06T02:01:43.867Z,22.60
2018-09-06T02:04:11.494Z,22.70
2018-09-06T02:06:39.233Z,22.40
2018-09-06T02:09:07.690Z,22.50
2018-09-06T02:11:35.687Z,22.50
2018-09-06T02:14:03.379Z,22.40
2018-09-06T02:16:31.221Z,22.50
2018-09-06T02:18:58.863Z,22.40
2018-09-06T02:21:26.547Z,22.30
2018-09-06T02:23:54.153Z,22.20
2018-09-06T02:26:21.791Z,22.20
2018-09-06T02:28:49.442Z,22.10
2018-09-06T02:31:17.135Z,22.30
2018-09-06T02:33:44.749Z,22.20
2018-09-06T02:36:12.374Z,22.10
2018-09-06T02:38:39.945Z,22.00
2018-09-06T02:41:07.579Z,22.00
2018-09-06T02:43:35.159Z,22.10
2018-09-06T02:46:02.838Z,22.00
2018-09-06T02:48:38.946Z,21.90
2018-09-06T02:51:12.239Z,21.80
2018-09-06T02:53:40.545Z,21.80
2018-09-06T02:56:08.454Z,21.80
2018-09-06T02:58:36.190Z,21.80
2018-09-06T03:01:03.859Z,21.80
2018-09-06T03:03:31.492Z,21.90
2018-09-06T03:05:59.150Z,21.90
2018-09-06T03:08:26.858Z,21.60
2018-09-06T03:11:01.791Z,21.60
2018-09-06T03:13:29.344Z,21.60
2018-09-06T03:15:57.032Z,21.60
2018-09-06T03:18:24.639Z,21.30
2018-09-06T03:20:52.251Z,21.70
2018-09-06T03:23:19.969Z,21.60
2018-09-06T03:25:47.623Z,21.70
2018-09-06T03:28:15.310Z,21.60
2018-09-06T03:30:42.924Z,21.60
2018-09-06T03:33:10.582Z,21.60
2018-09-06T03:35:38.163Z,21.60
2018-09-06T03:38:05.819Z,21.60
2018-09-06T03:40:33.480Z,21.60
2018-09-06T03:43:01.114Z,21.60
2018-09-06T03:45:28.779Z,21.40
2018-09-06T03:47:56.515Z,21.20
2018-09-06T03:50:24.200Z,21.20
2018-09-06T03:52:51.862Z,21.50
2018-09-06T03:55:19.486Z,21.40
2018-09-06T03:57:47.211Z,21.40
2018-09-06T04:00:14.823Z,21.50
2018-09-06T04:02:42.471Z,21.50
2018-09-06T04:05:10.051Z,21.30
2018-09-06T04:07:37.774Z,21.40
2018-09-06T04:10:05.499Z,21.40
2018-09-06T04:12:33.170Z,21.20
2018-09-06T04:15:00.800Z,21.40
2018-09-06T04:17:28.437Z,21.40
2018-09-06T04:19:56.142Z,21.30
2018-09-06T04:22:23.747Z,21.40
2018-09-06T04:24:51.319Z,21.40
2018-09-06T04:27:18.958Z,21.30
2018-09-06T04:29:46.574Z,21.30
2018-09-06T04:32:14.211Z,21.10
2018-09-06T04:34:41.821Z,21.20
2018-09-06T04:37:09.487Z,21.10
2018-09-06T04:39:37.178Z,21.30
2018-09-06T04:42:04.758Z,21.10
2018-09-06T04:44:32.463Z,21.00
2018-09-06T04:47:00.011Z,20.60
2018-09-06T04:49:27.695Z,20.90
2018-09-06T04:51:55.343Z,20.90
2018-09-06T04:54:22.977Z,20.90
2018-09-06T04:56:50.807Z,21.00
2018-09-06T04:59:18.474Z,21.00
2018-09-06T05:01:46.157Z,21.00
2018-09-06T05:04:13.813Z,21.10
2018-09-06T05:06:41.422Z,21.50
2018-09-06T05:09:09.914Z,21.30
2018-09-06T05:11:38.286Z,21.00
2018-09-06T05:14:05.994Z,21.10
2018-09-06T05:16:33.684Z,21.10
2018-09-06T05:19:01.327Z,21.00
2018-09-06T05:21:28.899Z,20.90
2018-09-06T05:23:56.555Z,20.90
2018-09-06T05:26:24.151Z,21.10
2018-09-06T05:28:51.897Z,21.10
2018-09-06T05:31:19.508Z,21.10
2018-09-06T05:33:47.243Z,21.20
2018-09-06T05:36:14.903Z,21.10
2018-09-06T05:38:42.505Z,21.30
2018-09-06T05:41:10.195Z,21.30
2018-09-06T05:43:37.897Z,21.40
2018-09-06T05:46:05.789Z,21.30
2018-09-06T05:48:33.398Z,21.50
2018-09-06T05:51:01.052Z,21.50
2018-09-06T05:53:28.863Z,21.40
2018-09-06T05:55:56.438Z,20.90
2018-09-06T05:58:24.194Z,21.20
2018-09-06T06:00:51.910Z,21.40
2018-09-06T06:03:19.551Z,21.40
2018-09-06T06:05:47.179Z,21.50
2018-09-06T06:08:26.110Z,21.50
2018-09-06T06:10:53.694Z,21.50
2018-09-06T06:13:21.424Z,21.50
2018-09-06T06:15:49.106Z,21.60
2018-09-06T06:18:16.694Z,21.60
2018-09-06T06:20:44.357Z,21.70
2018-09-06T06:23:12.015Z,21.50
2018-09-06T06:25:39.691Z,21.80
2018-09-06T06:28:07.337Z,21.60
2018-09-06T06:30:35.031Z,21.80
2018-09-06T06:33:02.735Z,21.80
2018-09-06T06:35:30.366Z,21.70
2018-09-06T06:37:58.077Z,21.80
2018-09-06T06:40:29.695Z,21.90
2018-09-06T06:42:57.338Z,21.80
2018-09-06T06:45:24.961Z,21.80
2018-09-06T06:47:52.543Z,21.80
2018-09-06T06:50:21.036Z,21.80
2018-09-06T06:52:48.615Z,21.70
2018-09-06T06:55:17.404Z,21.90
2018-09-06T06:57:45.125Z,21.80
2018-09-06T07:00:12.875Z,21.80
2018-09-06T07:02:40.475Z,21.90
2018-09-06T07:05:08.099Z,22.00
2018-09-06T07:07:35.743Z,22.10
2018-09-06T07:10:03.778Z,22.20
2018-09-06T07:12:31.627Z,22.30
2018-09-06T07:14:59.330Z,22.40
2018-09-06T07:17:26.930Z,22.60
2018-09-06T07:19:54.579Z,23.20
2018-09-06T07:22:22.201Z,24.10
2018-09-06T07:24:49.850Z,24.90
2018-09-06T07:27:17.616Z,25.40
2018-09-06T07:29:45.306Z,25.40
2018-09-06T07:32:12.936Z,25.20
2018-09-06T07:34:41.458Z,25.00
2018-09-06T07:37:09.039Z,24.70
2018-09-06T07:39:37.149Z,24.40
2018-09-06T07:42:04.854Z,24.20
2018-09-06T07:44:32.513Z,24.20
2018-09-06T07:47:00.083Z,24.30
2018-09-06T07:49:27.723Z,24.30
2018-09-06T07:51:55.312Z,24.30
2018-09-06T07:54:23.386Z,24.40
2018-09-06T07:56:51.053Z,24.50
2018-09-06T07:59:18.682Z,24.30
2018-09-06T08:01:46.291Z,24.30
2018-09-06T08:04:13.978Z,24.30
2018-09-06T08:06:42.035Z,24.30
2018-09-06T08:09:10.670Z,24.20
2018-09-06T08:11:38.839Z,24.20
2018-09-06T08:14:06.517Z,24.00
2018-09-06T08:16:34.594Z,24.00
2018-09-06T08:19:02.271Z,23.80
2018-09-06T08:21:29.996Z,23.80
2018-09-06T08:23:57.681Z,23.90
2018-09-06T08:26:25.683Z,23.80
2018-09-06T08:28:53.318Z,23.80
2018-09-06T08:31:21.048Z,23.90
2018-09-06T08:33:49.558Z,24.10
2018-09-06T08:36:17.430Z,24.50
2018-09-06T08:38:45.002Z,25.40
2018-09-06T08:41:13.078Z,26.90
2018-09-06T08:43:40.942Z,28.20
2018-09-06T08:46:08.854Z,29.30
2018-09-06T08:48:36.531Z,30.30
2018-09-06T08:51:04.395Z,30.30
2018-09-06T08:53:32.014Z,30.50
2018-09-06T08:55:59.660Z,30.40
2018-09-06T08:58:27.409Z,30.10
2018-09-06T09:01:00.766Z,30.40
2018-09-06T09:03:28.596Z,30.60
2018-09-06T09:05:56.491Z,30.70
2018-09-06T09:08:24.236Z,30.90
2018-09-06T09:10:52.002Z,30.90
2018-09-06T09:13:19.667Z,31.20
2018-09-06T09:15:47.470Z,31.10
2018-09-06T09:18:15.140Z,30.90
2018-09-06T09:20:42.838Z,31.00
2018-09-06T09:23:10.491Z,30.90
2018-09-06T09:28:12.060Z,30.40
2018-09-06T09:30:39.831Z,28.70
2018-09-06T09:33:07.431Z,28.60
2018-09-06T09:35:35.095Z,28.40
2018-09-06T09:38:02.811Z,28.50
2018-09-06T09:40:30.488Z,28.40
2018-09-06T09:42:58.166Z,28.40
2018-09-06T09:45:25.947Z,28.30
2018-09-06T09:47:53.697Z,28.20
2018-09-06T09:52:48.683Z,28.60
2018-09-06T09:55:16.362Z,29.00
2018-09-06T09:57:43.974Z,29.70
2018-09-06T10:00:11.594Z,30.40
2018-09-06T10:02:44.870Z,30.40
2018-09-06T10:05:17.965Z,30.40
2018-09-06T10:07:51.182Z,29.90
2018-09-06T10:10:18.761Z,29.80
2018-09-06T10:12:46.427Z,30.40
2018-09-06T10:15:13.998Z,30.30
2018-09-06T10:17:41.694Z,30.20
2018-09-06T10:20:09.341Z,30.50
2018-09-06T10:22:37.046Z,30.90
2018-09-06T10:25:04.822Z,30.70
2018-09-06T10:27:32.582Z,30.90
2018-09-06T10:30:00.370Z,30.90
2018-09-06T10:32:28.046Z,30.80
2018-09-06T10:34:55.930Z,30.40
2018-09-06T10:37:23.722Z,30.40
2018-09-06T10:39:51.412Z,30.10
2018-09-06T10:42:19.095Z,30.60
2018-09-06T10:44:46.763Z,30.50
2018-09-06T10:47:14.422Z,30.70
2018-09-06T10:49:42.048Z,30.80
2018-09-06T10:52:09.647Z,31.00
2018-09-06T10:54:37.272Z,31.40
2018-09-06T10:57:05.248Z,31.60
2018-09-06T10:59:33.008Z,31.60
2018-09-06T11:02:00.727Z,31.30
2018-09-06T11:04:28.411Z,30.90
2018-09-06T11:06:56.223Z,30.50
2018-09-06T11:09:23.931Z,29.80
2018-09-06T11:11:51.579Z,29.50
2018-09-06T11:14:19.256Z,29.80
2018-09-06T11:16:46.995Z,30.20
2018-09-06T11:19:14.662Z,30.60
2018-09-06T11:21:42.405Z,30.90
2018-09-06T11:24:09.939Z,30.70
2018-09-06T11:26:37.530Z,30.70
2018-09-06T11:29:05.214Z,30.90
2018-09-06T11:31:33.041Z,31.30
2018-09-06T11:34:00.680Z,31.40
2018-09-06T11:36:28.325Z,31.60
2018-09-06T11:38:56.037Z,31.40
2018-09-06T11:41:23.743Z,31.20
2018-09-06T11:43:51.466Z,31.30
2018-09-06T11:46:19.147Z,30.90
2018-09-06T11:48:46.958Z,30.70
2018-09-06T11:51:14.681Z,30.70
2018-09-06T11:53:42.330Z,30.80
2018-09-06T11:56:10.113Z,31.00
2018-09-06T11:58:38.012Z,31.00
2018-09-06T12:01:05.996Z,30.60
2018-09-06T12:03:33.821Z,30.10
2018-09-06T12:06:01.527Z,30.00
2018-09-06T12:08:29.225Z,30.10
2018-09-06T12:10:56.982Z,30.20
2018-09-06T12:13:24.646Z,30.10
2018-09-06T12:15:52.376Z,29.90
2018-09-06T12:18:20.163Z,30.10
2018-09-06T12:20:47.838Z,30.60
2018-09-06T12:23:15.913Z,30.70
2018-09-06T12:25:43.635Z,30.30
2018-09-06T12:28:11.492Z,30.20
2018-09-06T12:30:39.388Z,30.20
2018-09-06T12:33:07.144Z,30.30
2018-09-06T12:35:34.821Z,30.70
2018-09-06T12:38:02.619Z,30.90
2018-09-06T12:40:30.431Z,30.90
2018-09-06T12:42:58.545Z,31.10
2018-09-06T12:45:26.274Z,31.10
2018-09-06T12:47:53.980Z,31.10
2018-09-06T12:50:21.718Z,31.10
2018-09-06T12:52:49.364Z,31.30
2018-09-06T12:55:17.124Z,31.30
2018-09-06T12:57:44.851Z,31.10
2018-09-06T13:00:12.595Z,30.90
2018-09-06T13:02:40.355Z,30.90
2018-09-06T13:05:08.130Z,30.90
2018-09-06T13:07:35.823Z,31.00
2018-09-06T13:10:03.884Z,31.00
2018-09-06T13:12:31.583Z,30.80
2018-09-06T13:14:59.257Z,30.80
2018-09-06T13:17:27.371Z,30.70
2018-09-06T13:19:55.124Z,30.80
2018-09-06T13:22:22.867Z,30.60
2018-09-06T13:24:50.603Z,30.00
2018-09-06T13:27:18.451Z,28.60
2018-09-06T13:29:46.190Z,27.50
2018-09-06T13:32:13.975Z,27.00
2018-09-06T13:34:41.690Z,27.00
2018-09-06T13:37:09.513Z,27.20
2018-09-06T13:39:37.982Z,27.20
2018-09-06T13:42:05.777Z,27.20
2018-09-06T13:44:33.399Z,27.30
2018-09-06T13:47:01.031Z,27.40
2018-09-06T13:49:28.745Z,27.60
2018-09-06T13:51:56.447Z,27.90
2018-09-06T13:54:24.150Z,28.20
2018-09-06T13:56:51.816Z,28.40
2018-09-06T13:59:19.538Z,28.60
2018-09-06T14:01:47.231Z,28.70
2018-09-06T14:04:14.951Z,28.60
2018-09-06T14:06:42.598Z,28.60
2018-09-06T14:09:10.215Z,28.50
2018-09-06T14:11:37.991Z,28.60
2018-09-06T14:14:05.801Z,28.50
2018-09-06T14:16:33.520Z,28.30
2018-09-06T14:19:01.387Z,28.20
2018-09-06T14:21:29.114Z,28.00
2018-09-06T14:23:56.842Z,27.80
2018-09-06T14:26:24.685Z,27.50
2018-09-06T14:28:52.376Z,27.30
2018-09-06T14:31:19.979Z,27.10
2018-09-06T14:33:47.640Z,26.90
2018-09-06T14:36:15.360Z,26.80
2018-09-06T14:38:42.966Z,26.80
2018-09-06T14:41:10.614Z,26.40
2018-09-06T14:43:38.263Z,26.20
2018-09-06T14:46:06.012Z,25.90
2018-09-06T14:48:33.680Z,25.80
2018-09-06T14:51:01.386Z,25.60
2018-09-06T14:53:29.036Z,25.50
2018-09-06T14:55:56.765Z,25.50
2018-09-06T14:58:24.558Z,25.50
2018-09-06T15:00:52.183Z,25.50
2018-09-06T15:03:19.818Z,25.40
2018-09-06T15:05:47.446Z,24.90
2018-09-06T15:08:15.105Z,23.80
2018-09-06T15:10:42.763Z,22.60
2018-09-06T15:13:10.367Z,21.80
2018-09-06T15:15:38.161Z,21.40
2018-09-06T15:18:05.975Z,21.30
2018-09-06T15:20:33.645Z,21.40
2018-09-06T15:23:01.243Z,21.40
2018-09-06T15:25:28.945Z,21.40
2018-09-06T15:27:56.551Z,21.60
2018-09-06T15:30:24.162Z,21.80
2018-09-06T15:32:51.838Z,21.70
2018-09-06T15:35:19.495Z,21.80
2018-09-06T15:37:47.187Z,21.80
2018-09-06T15:40:14.798Z,21.90
2018-09-06T15:42:42.514Z,22.10
2018-09-06T15:45:10.296Z,22.30
2018-09-06T15:47:37.939Z,22.40
2018-09-06T15:50:06.657Z,22.60
2018-09-06T15:52:34.327Z,22.60
2018-09-06T15:55:01.902Z,22.80
2018-09-06T15:57:29.598Z,22.90
2018-09-06T15:59:57.203Z,22.90
2018-09-06T16:02:25.010Z,22.60
2018-09-06T16:04:52.742Z,22.40
2018-09-06T16:07:20.425Z,22.10
2018-09-06T16:09:48.126Z,21.90
2018-09-06T16:12:15.837Z,22.00
2018-09-06T16:14:43.444Z,22.10
2018-09-06T16:17:11.066Z,22.20
2018-09-06T16:19:38.727Z,22.30
2018-09-06T16:22:06.550Z,22.50
2018-09-06T16:24:34.349Z,22.50
2018-09-06T16:27:01.905Z,22.50
2018-09-06T16:29:29.723Z,22.60
2018-09-06T16:31:57.339Z,22.70
2018-09-06T16:34:25.040Z,22.80
2018-09-06T16:36:52.740Z,22.90
2018-09-06T16:39:20.434Z,23.00
2018-09-06T16:41:48.147Z,22.80
2018-09-06T16:44:15.751Z,22.70
2018-09-06T16:46:43.460Z,22.80
2018-09-06T16:49:11.137Z,22.80
2018-09-06T16:51:38.839Z,22.90
2018-09-06T16:54:06.642Z,22.90
2018-09-06T16:56:34.316Z,22.90
2018-09-06T16:59:01.957Z,22.90
2018-09-06T17:01:29.666Z,22.90
2018-09-06T17:03:57.368Z,22.90
2018-09-06T17:06:25.046Z,22.90
2018-09-06T17:08:52.678Z,22.90
2018-09-06T17:11:20.290Z,23.10
2018-09-06T17:13:47.938Z,22.90
2018-09-06T17:16:15.751Z,22.90
2018-09-06T17:18:43.480Z,22.90
2018-09-06T17:21:11.133Z,22.90
2018-09-06T17:23:38.866Z,22.80
2018-09-06T17:26:06.816Z,22.90
2018-09-06T17:28:34.386Z,22.70
2018-09-06T17:31:02.134Z,22.60
2018-09-06T17:33:29.844Z,22.50
2018-09-06T17:35:57.519Z,22.50
2018-09-06T17:38:25.238Z,22.50
2018-09-06T17:40:52.839Z,22.50
2018-09-06T17:43:20.554Z,22.60
2018-09-06T17:45:48.201Z,22.60
2018-09-06T17:48:15.930Z,22.60
2018-09-06T17:50:43.795Z,22.40
2018-09-06T17:53:11.598Z,22.20
2018-09-06T17:55:40.297Z,22.20
2018-09-06T17:58:07.931Z,22.10
2018-09-06T18:00:41.176Z,22.10
2018-09-06T18:03:09.122Z,21.80
2018-09-06T18:05:36.789Z,21.80
2018-09-06T18:08:04.740Z,21.50
2018-09-06T18:10:41.563Z,21.40
2018-09-06T18:13:09.535Z,20.80
2018-09-06T18:15:37.233Z,21.30
2018-09-06T18:18:04.928Z,21.10
2018-09-06T18:20:32.711Z,21.00
2018-09-06T18:23:01.686Z,21.00
2018-09-06T18:25:29.454Z,20.80
2018-09-06T18:27:57.122Z,20.50
2018-09-06T18:30:25.077Z,20.60
2018-09-06T18:32:52.970Z,20.60
2018-09-06T18:35:20.708Z,20.60
2018-09-06T18:37:48.371Z,20.70
2018-09-06T18:40:16.031Z,20.80
2018-09-06T18:42:43.819Z,20.80
2018-09-06T18:45:11.551Z,20.80
2018-09-06T18:47:39.174Z,20.90
2018-09-06T18:50:06.894Z,21.00
2018-09-06T18:52:34.545Z,21.00
2018-09-06T18:55:02.218Z,21.00
2018-09-06T18:57:30.078Z,20.90
2018-09-06T18:59:58.470Z,21.00
2018-09-06T19:02:26.180Z,20.90
2018-09-06T19:04:53.792Z,21.00
2018-09-06T19:07:21.486Z,20.90
2018-09-06T19:09:49.214Z,20.80
2018-09-06T19:12:17.027Z,20.80
2018-09-06T19:14:44.566Z,20.70
2018-09-06T19:17:12.771Z,20.50
2018-09-06T19:19:40.422Z,20.60
2018-09-06T19:22:08.090Z,20.20
2018-09-06T19:24:35.766Z,20.30
2018-09-06T19:27:03.479Z,19.90
2018-09-06T19:29:31.142Z,19.70
2018-09-06T19:31:59.044Z,19.70
2018-09-06T19:34:26.954Z,19.60
2018-09-06T19:36:54.753Z,19.60
2018-09-06T19:39:22.391Z,19.60
2018-09-06T19:41:50.363Z,19.70
2018-09-06T19:44:18.498Z,19.60
2018-09-06T19:46:46.209Z,19.40
2018-09-06T19:49:14.790Z,19.40
2018-09-06T19:51:46.352Z,19.20
2018-09-06T19:54:14.894Z,19.30
2018-09-06T19:56:42.946Z,19.10
2018-09-06T19:59:10.603Z,19.10
2018-09-06T20:01:39.435Z,18.80
2018-09-06T20:04:07.164Z,18.90
2018-09-06T20:06:34.747Z,18.70
2018-09-06T20:09:02.479Z,18.70
2018-09-06T20:11:30.186Z,18.70
2018-09-06T20:13:57.876Z,18.70
2018-09-06T20:16:25.581Z,18.60
2018-09-06T20:18:53.375Z,18.40
2018-09-06T20:21:21.038Z,18.70
2018-09-06T20:23:48.742Z,18.60
2018-09-06T20:26:20.269Z,18.60
2018-09-06T20:28:48.979Z,18.70
2018-09-06T20:31:17.679Z,18.80
2018-09-06T20:33:45.966Z,19.00
2018-09-06T20:36:13.571Z,19.20
2018-09-06T20:38:41.292Z,19.60
2018-09-06T20:43:55.498Z,19.60
2018-09-06T20:46:23.267Z,19.70
2018-09-06T20:48:50.974Z,19.80
2018-09-06T20:51:18.545Z,19.80
2018-09-06T20:53:46.119Z,19.70
2018-09-06T20:56:13.826Z,19.70
2018-09-06T20:58:42.266Z,19.90
2018-09-06T21:01:09.909Z,19.70
2018-09-06T21:03:37.565Z,20.00
2018-09-06T21:06:05.319Z,19.70
2018-09-06T21:08:33.013Z,20.00
2018-09-06T21:11:00.684Z,19.80
2018-09-06T21:13:28.331Z,19.70
2018-09-06T21:15:56.195Z,19.80
2018-09-06T21:18:23.895Z,19.70
2018-09-06T21:20:51.662Z,19.70
2018-09-06T21:23:19.376Z,19.90
2018-09-06T21:25:46.987Z,19.80
2018-09-06T21:28:14.779Z,19.90
2018-09-06T21:30:42.392Z,19.70
2018-09-06T21:33:10.143Z,19.60
2018-09-06T21:35:37.806Z,19.20
2018-09-06T21:38:05.539Z,19.50
2018-09-06T21:40:33.164Z,19.40
2018-09-06T21:43:00.826Z,19.40
2018-09-06T21:45:28.647Z,19.60
2018-09-06T21:47:56.475Z,19.60
2018-09-06T21:50:24.171Z,19.80
2018-09-06T21:52:52.247Z,19.90
2018-09-06T21:55:19.939Z,19.90
2018-09-06T21:57:47.595Z,19.60
2018-09-06T22:00:15.316Z,19.50
2018-09-06T22:02:48.496Z,19.70
2018-09-06T22:05:16.240Z,19.70
2018-09-06T22:07:44.017Z,19.60
2018-09-06T22:10:12.206Z,19.60
2018-09-06T22:12:39.886Z,19.50
2018-09-06T22:15:07.571Z,19.50
2018-09-06T22:17:35.280Z,19.30
2018-09-06T22:20:03.042Z,19.10
2018-09-06T22:22:30.754Z,19.20
2018-09-06T22:24:58.466Z,19.30
2018-09-06T22:27:26.165Z,19.30
2018-09-06T22:29:53.819Z,19.50
2018-09-06T22:32:21.503Z,19.40
2018-09-06T22:34:49.374Z,19.50
2018-09-06T22:37:17.039Z,19.70
2018-09-06T22:39:44.756Z,19.60
2018-09-06T22:42:12.484Z,19.60
2018-09-06T22:44:40.163Z,19.70
2018-09-06T22:47:07.879Z,19.50
2018-09-06T22:49:35.758Z,19.50
2018-09-06T22:52:03.809Z,19.60
2018-09-06T22:54:31.487Z,19.60
2018-09-06T22:56:59.268Z,19.80
2018-09-06T22:59:27.226Z,19.70
2018-09-06T23:01:56.505Z,19.60
2018-09-06T23:04:24.157Z,19.30
2018-09-06T23:06:51.799Z,19.70
2018-09-06T23:09:19.438Z,19.60
2018-09-06T23:11:47.396Z,19.70
2018-09-06T23:14:15.123Z,20.00
2018-09-06T23:16:42.820Z,19.70
2018-09-06T23:19:10.718Z,19.30
2018-09-06T23:21:38.405Z,19.50
2018-09-06T23:24:06.157Z,19.50
2018-09-06T23:26:33.863Z,19.50
2018-09-06T23:29:01.579Z,19.60
2018-09-06T23:31:29.246Z,19.60
2018-09-06T23:33:56.910Z,19.50
2018-09-06T23:36:24.584Z,19.50
2018-09-06T23:38:52.218Z,19.60
2018-09-06T23:41:19.842Z,19.50
2018-09-06T23:43:47.743Z,19.80
2018-09-06T23:46:15.370Z,19.80
2018-09-06T23:48:43.020Z,19.80
2018-09-06T23:51:10.670Z,19.80
2018-09-06T23:53:38.371Z,19.90
2018-09-06T23:56:06.017Z,19.50
2018-09-06T23:58:33.723Z,19.70
